createdAt,value
2017-06-09T00:01:00.444Z,979.3
2017-06-09T00:02:10.394Z,979.28
2017-06-09T00:03:20.656Z,979.29
2017-06-09T00:04:30.916Z,979.27
2017-06-09T00:05:41.175Z,979.28
2017-06-09T00:06:51.434Z,979.21
2017-06-09T00:08:01.695Z,979.24
2017-06-09T00:09:11.642Z,979.22
2017-06-09T00:10:21.943Z,979.24
2017-06-09T00:11:32.218Z,979.25
2017-06-09T00:12:42.482Z,979.26
2017-06-09T00:13:52.745Z,979.2
2017-06-09T00:15:03.007Z,979.23
2017-06-09T00:16:12.961Z,979.2
2017-06-09T00:17:23.226Z,979.22
2017-06-09T00:18:33.500Z,979.25
2017-06-09T00:19:43.449Z,979.18
2017-06-09T00:20:53.714Z,979.19
2017-06-09T00:22:03.980Z,979.22
2017-06-09T00:23:13.930Z,979.2
2017-06-09T00:24:24.202Z,979.15
2017-06-09T00:25:34.460Z,979.18
2017-06-09T00:26:44.719Z,979.18
2017-06-09T00:27:54.980Z,979.2
2017-06-09T00:29:04.928Z,979.16
2017-06-09T00:30:14.556Z,979.17
2017-06-09T00:31:24.508Z,979.18
2017-06-09T00:32:34.454Z,979.18
2017-06-09T00:33:44.716Z,979.15
2017-06-09T00:34:54.980Z,979.16
2017-06-09T00:36:05.243Z,979.18
2017-06-09T00:37:15.507Z,979.17
2017-06-09T00:38:25.454Z,979.2
2017-06-09T00:39:35.711Z,979.22
2017-06-09T00:40:45.660Z,979.26
2017-06-09T00:41:55.607Z,979.24
2017-06-09T00:43:05.551Z,979.26
2017-06-09T00:44:15.806Z,979.26
2017-06-09T00:45:25.757Z,979.26
2017-06-09T00:46:36.025Z,979.22
2017-06-09T00:47:46.284Z,979.24
2017-06-09T00:48:56.543Z,979.23
2017-06-09T00:50:06.487Z,979.25
2017-06-09T00:51:16.773Z,979.22
2017-06-09T00:52:27.033Z,979.22
2017-06-09T00:53:37.296Z,979.25
2017-06-09T00:54:47.250Z,979.22
2017-06-09T00:55:57.194Z,979.21
2017-06-09T00:57:07.453Z,979.19
2017-06-09T00:58:17.092Z,979.21
2017-06-09T00:59:27.040Z,979.24
2017-06-09T01:00:36.990Z,979.18
2017-06-09T01:01:47.257Z,979.19
2017-06-09T01:02:57.515Z,979.21
2017-06-09T01:04:07.775Z,979.19
2017-06-09T01:05:18.035Z,979.21
2017-06-09T01:06:28.300Z,979.23
2017-06-09T01:07:38.575Z,979.21
2017-06-09T01:08:48.836Z,979.19
2017-06-09T01:09:58.793Z,979.19
2017-06-09T01:11:08.429Z,979.2
2017-06-09T01:12:18.696Z,979.2
2017-06-09T01:13:28.956Z,979.18
2017-06-09T01:14:39.221Z,979.12
2017-06-09T01:15:49.498Z,979.17
2017-06-09T01:16:59.756Z,979.17
2017-06-09T01:18:10.017Z,979.15
2017-06-09T01:19:19.967Z,979.14
2017-06-09T01:20:30.234Z,979.16
2017-06-09T01:21:40.494Z,979.17
2017-06-09T01:22:50.754Z,979.16
2017-06-09T01:24:00.703Z,979.16
2017-06-09T01:25:10.655Z,979.17
2017-06-09T01:26:20.601Z,979.15
2017-06-09T01:27:30.549Z,979.15
2017-06-09T01:28:40.810Z,979.16
2017-06-09T01:29:51.067Z,979.2
2017-06-09T01:31:01.329Z,979.18
2017-06-09T01:32:11.598Z,979.18
2017-06-09T01:33:21.868Z,979.19
2017-06-09T01:34:31.502Z,979.21
2017-06-09T01:35:41.447Z,979.24
2017-06-09T01:36:51.714Z,979.22
2017-06-09T01:38:01.661Z,979.18
2017-06-09T01:39:11.600Z,979.26
2017-06-09T01:40:21.856Z,979.23
2017-06-09T01:41:31.803Z,979.26
2017-06-09T01:42:42.064Z,979.23
2017-06-09T01:43:52.322Z,979.25
2017-06-09T01:45:02.590Z,979.22
2017-06-09T01:46:12.537Z,979.25
2017-06-09T01:47:22.482Z,979.2
2017-06-09T01:48:32.431Z,979.22
2017-06-09T01:49:42.378Z,979.19
2017-06-09T01:50:52.320Z,979.19
2017-06-09T01:52:02.586Z,979.22
2017-06-09T01:53:12.528Z,979.24
2017-06-09T01:54:22.823Z,979.24
2017-06-09T01:55:33.095Z,979.25
2017-06-09T01:56:43.354Z,979.26
2017-06-09T01:57:53.620Z,979.24
2017-06-09T01:59:03.888Z,979.27
2017-06-09T02:00:14.151Z,979.23
2017-06-09T02:01:24.096Z,979.27
2017-06-09T02:02:34.366Z,979.27
2017-06-09T02:03:44.632Z,979.32
2017-06-09T02:04:54.887Z,979.28
2017-06-09T02:06:05.152Z,979.32
2017-06-09T02:07:15.100Z,979.27
2017-06-09T02:08:24.735Z,979.25
2017-06-09T02:09:34.370Z,979.29
2017-06-09T02:10:44.632Z,979.26
2017-06-09T02:11:54.582Z,979.24
2017-06-09T02:13:04.523Z,979.24
2017-06-09T02:14:14.777Z,979.22
2017-06-09T02:15:24.719Z,979.26
2017-06-09T02:16:34.976Z,979.27
2017-06-09T02:17:45.229Z,979.27
2017-06-09T02:18:54.864Z,979.27
2017-06-09T02:20:05.125Z,979.26
2017-06-09T02:21:15.075Z,979.24
2017-06-09T02:22:25.018Z,979.25
2017-06-09T02:23:34.970Z,979.28
2017-06-09T02:24:45.236Z,979.27
2017-06-09T02:25:55.499Z,979.25
2017-06-09T02:27:05.759Z,979.29
2017-06-09T02:28:15.390Z,979.3
2017-06-09T02:29:25.647Z,979.32
2017-06-09T02:30:35.912Z,979.35
2017-06-09T02:31:46.174Z,979.29
2017-06-09T02:32:56.125Z,979.32
2017-06-09T02:34:06.387Z,979.35
2017-06-09T02:35:16.649Z,979.41
2017-06-09T02:36:26.278Z,979.44
2017-06-09T02:37:36.545Z,979.44
2017-06-09T02:38:46.851Z,979.47
2017-06-09T02:39:57.111Z,979.51
2017-06-09T02:41:07.369Z,979.51
2017-06-09T02:42:17.630Z,979.51
2017-06-09T02:43:27.260Z,979.54
2017-06-09T02:44:37.205Z,979.55
2017-06-09T02:45:47.147Z,979.57
2017-06-09T02:46:57.404Z,979.54
2017-06-09T02:48:07.661Z,979.59
2017-06-09T02:49:17.294Z,979.57
2017-06-09T02:50:27.549Z,979.54
2017-06-09T02:51:37.813Z,979.57
2017-06-09T02:52:47.761Z,979.53
2017-06-09T02:53:58.022Z,979.58
2017-06-09T02:55:07.964Z,979.51
2017-06-09T02:56:17.595Z,979.55
2017-06-09T02:57:27.590Z,979.5
2017-06-09T02:58:37.544Z,979.53
2017-06-09T02:59:47.493Z,979.5
2017-06-09T03:00:57.126Z,979.49
2017-06-09T03:02:07.395Z,979.5
2017-06-09T03:03:17.652Z,979.5
2017-06-09T03:04:27.597Z,979.51
2017-06-09T03:06:50.928Z,979.51
2017-06-09T03:08:01.193Z,979.5
2017-06-09T03:09:11.138Z,979.47
2017-06-09T03:10:21.082Z,979.47
2017-06-09T03:11:31.353Z,979.48
2017-06-09T03:12:41.610Z,979.42
2017-06-09T03:13:51.247Z,979.46
2017-06-09T03:15:01.192Z,979.44
2017-06-09T03:16:11.495Z,979.42
2017-06-09T03:17:21.766Z,979.43
2017-06-09T03:18:32.028Z,979.45
2017-06-09T03:19:41.664Z,979.46
2017-06-09T03:20:51.918Z,979.47
2017-06-09T03:22:01.875Z,979.47
2017-06-09T03:23:12.137Z,979.49
2017-06-09T03:24:22.402Z,979.53
2017-06-09T03:25:32.669Z,979.49
2017-06-09T03:26:42.929Z,979.47
2017-06-09T03:27:52.877Z,979.48
2017-06-09T03:29:03.143Z,979.51
2017-06-09T03:30:13.414Z,979.51
2017-06-09T03:31:23.672Z,979.51
2017-06-09T03:32:33.622Z,979.5
2017-06-09T03:33:43.579Z,979.54
2017-06-09T03:34:53.892Z,979.55
2017-06-09T03:36:04.157Z,979.6
2017-06-09T03:37:14.423Z,979.61
2017-06-09T03:38:24.682Z,979.61
2017-06-09T03:39:34.631Z,979.6
2017-06-09T03:40:44.907Z,979.57
2017-06-09T03:41:55.166Z,979.59
2017-06-09T03:43:05.423Z,979.59
2017-06-09T03:44:15.372Z,979.62
2017-06-09T03:45:25.325Z,979.61
2017-06-09T03:46:35.586Z,979.62
2017-06-09T03:47:45.869Z,979.61
2017-06-09T03:48:55.815Z,979.62
2017-06-09T03:50:06.077Z,979.57
2017-06-09T03:51:15.710Z,979.55
2017-06-09T03:52:25.661Z,979.57
2017-06-09T03:53:35.609Z,979.62
2017-06-09T03:54:45.886Z,979.59
2017-06-09T03:55:56.147Z,979.61
2017-06-09T03:57:06.102Z,979.64
2017-06-09T03:58:16.367Z,979.64
2017-06-09T03:59:26.632Z,979.64
2017-06-09T04:00:36.888Z,979.68
2017-06-09T04:01:47.145Z,979.65
2017-06-09T04:02:57.090Z,979.67
2017-06-09T04:04:07.348Z,979.64
2017-06-09T04:05:16.981Z,979.66
2017-06-09T04:06:27.246Z,979.65
2017-06-09T04:07:37.505Z,979.66
2017-06-09T04:08:47.450Z,979.65
2017-06-09T04:09:57.718Z,979.69
2017-06-09T04:11:07.986Z,979.7
2017-06-09T04:12:18.247Z,979.67
2017-06-09T04:13:28.514Z,979.72
2017-06-09T04:14:38.775Z,979.7
2017-06-09T04:15:49.037Z,979.68
2017-06-09T04:16:59.303Z,979.68
2017-06-09T04:18:09.263Z,979.69
2017-06-09T04:19:19.527Z,979.73
2017-06-09T04:20:29.476Z,979.72
2017-06-09T04:21:39.746Z,979.78
2017-06-09T04:22:50.041Z,979.77
2017-06-09T04:23:59.986Z,979.79
2017-06-09T04:25:09.944Z,979.79
2017-06-09T04:26:20.202Z,979.83
2017-06-09T04:27:30.464Z,979.8
2017-06-09T04:28:40.722Z,979.84
2017-06-09T04:29:50.670Z,979.81
2017-06-09T04:31:00.929Z,979.84
2017-06-09T04:32:10.877Z,979.88
2017-06-09T04:33:20.552Z,979.89
2017-06-09T04:34:30.810Z,979.85
2017-06-09T04:35:41.073Z,979.81
2017-06-09T04:36:51.331Z,979.84
2017-06-09T04:38:01.593Z,979.85
2017-06-09T04:39:11.854Z,979.86
2017-06-09T04:40:21.811Z,979.86
2017-06-09T04:41:32.080Z,979.9
2017-06-09T04:42:41.715Z,979.93
2017-06-09T04:43:51.972Z,979.94
2017-06-09T04:45:02.233Z,979.97
2017-06-09T04:46:12.181Z,979.93
2017-06-09T04:47:22.440Z,979.96
2017-06-09T04:48:32.386Z,979.93
2017-06-09T04:49:42.334Z,980
2017-06-09T04:50:52.594Z,979.98
2017-06-09T04:52:02.860Z,980.03
2017-06-09T04:53:12.811Z,980.04
2017-06-09T04:54:22.760Z,980.09
2017-06-09T04:55:33.022Z,980.1
2017-06-09T04:56:42.963Z,980.09
2017-06-09T04:57:52.988Z,980.08
2017-06-09T04:59:03.256Z,980.08
2017-06-09T05:00:12.888Z,980.11
2017-06-09T05:01:22.517Z,980.1
2017-06-09T05:02:32.511Z,980.13
2017-06-09T05:03:42.460Z,980.13
2017-06-09T05:04:52.718Z,980.11
2017-06-09T05:06:02.980Z,980.14
2017-06-09T05:07:12.931Z,980.15
2017-06-09T05:08:22.879Z,980.18
2017-06-09T05:09:32.518Z,980.15
2017-06-09T05:10:42.466Z,980.17
2017-06-09T05:11:52.442Z,980.15
2017-06-09T05:13:02.700Z,980.16
2017-06-09T05:14:12.964Z,980.16
2017-06-09T05:15:23.233Z,980.19
2017-06-09T05:16:33.501Z,980.21
2017-06-09T05:17:43.444Z,980.19
2017-06-09T05:18:53.396Z,980.19
2017-06-09T05:20:03.668Z,980.25
2017-06-09T05:21:13.620Z,980.23
2017-06-09T05:22:23.574Z,980.26
2017-06-09T05:23:33.839Z,980.21
2017-06-09T05:24:44.098Z,980.23
2017-06-09T05:25:54.042Z,980.26
2017-06-09T05:27:04.300Z,980.25
2017-06-09T05:28:14.555Z,980.26
2017-06-09T05:29:24.503Z,980.29
2017-06-09T05:30:34.763Z,980.3
2017-06-09T05:31:45.023Z,980.34
2017-06-09T05:32:54.973Z,980.34
2017-06-09T05:34:04.932Z,980.33
2017-06-09T05:35:14.886Z,980.33
2017-06-09T05:36:25.155Z,980.37
2017-06-09T05:37:35.419Z,980.36
2017-06-09T05:38:45.678Z,980.37
2017-06-09T05:39:55.630Z,980.35
2017-06-09T05:41:05.893Z,980.34
2017-06-09T05:42:16.154Z,980.37
2017-06-09T05:43:26.416Z,980.39
2017-06-09T05:44:36.364Z,980.38
2017-06-09T05:45:46.310Z,980.35
2017-06-09T05:46:56.261Z,980.37
2017-06-09T05:48:05.904Z,980.39
2017-06-09T05:49:15.533Z,980.43
2017-06-09T05:50:25.908Z,980.4
2017-06-09T05:51:36.139Z,980.43
2017-06-09T05:52:46.706Z,980.44
2017-06-09T05:53:56.649Z,980.45
2017-06-09T05:55:06.912Z,980.46
2017-06-09T05:56:16.867Z,980.49
2017-06-09T05:57:27.140Z,980.48
2017-06-09T05:58:37.093Z,980.54
2017-06-09T05:59:47.357Z,980.55
2017-06-09T06:00:57.622Z,980.55
2017-06-09T06:02:07.887Z,980.58
2017-06-09T06:03:17.836Z,980.56
2017-06-09T06:04:27.795Z,980.59
2017-06-09T06:05:38.054Z,980.62
2017-06-09T06:06:48.321Z,980.64
2017-06-09T06:07:58.586Z,980.65
2017-06-09T06:09:08.229Z,980.66
2017-06-09T06:10:18.177Z,980.69
2017-06-09T06:11:28.129Z,980.72
2017-06-09T06:12:38.396Z,980.74
2017-06-09T06:13:48.375Z,980.73
2017-06-09T06:14:58.633Z,980.81
2017-06-09T06:16:08.899Z,980.78
2017-06-09T06:17:19.163Z,980.82
2017-06-09T06:18:29.431Z,980.84
2017-06-09T06:19:39.690Z,980.84
2017-06-09T06:20:49.964Z,980.87
2017-06-09T06:22:00.231Z,980.84
2017-06-09T06:23:10.491Z,980.88
2017-06-09T06:24:20.756Z,980.87
2017-06-09T06:25:31.020Z,980.83
2017-06-09T06:26:40.974Z,980.83
2017-06-09T06:27:51.239Z,980.83
2017-06-09T06:29:01.502Z,980.81
2017-06-09T06:30:11.771Z,980.8
2017-06-09T06:31:21.716Z,980.8
2017-06-09T06:32:31.672Z,980.84
2017-06-09T06:33:41.940Z,980.87
2017-06-09T06:34:52.203Z,980.87
2017-06-09T06:36:02.469Z,980.89
2017-06-09T06:37:12.445Z,980.89
2017-06-09T06:38:22.707Z,980.9
2017-06-09T06:39:32.335Z,980.95
2017-06-09T06:40:42.596Z,980.96
2017-06-09T06:41:52.863Z,980.99
2017-06-09T06:43:02.814Z,980.96
2017-06-09T06:44:13.080Z,980.99
2017-06-09T06:45:23.345Z,980.95
2017-06-09T06:46:32.985Z,980.96
2017-06-09T06:47:42.976Z,980.98
2017-06-09T06:48:53.243Z,980.98
2017-06-09T06:50:03.199Z,980.98
2017-06-09T06:51:12.834Z,981.03
2017-06-09T06:52:23.114Z,981.02
2017-06-09T06:53:33.068Z,981.02
2017-06-09T06:54:43.014Z,981.02
2017-06-09T06:55:53.286Z,981.02
2017-06-09T06:57:03.546Z,981.02
2017-06-09T06:58:13.183Z,981.02
2017-06-09T06:59:23.131Z,981
2017-06-09T07:00:33.079Z,981.02
2017-06-09T07:01:43.026Z,980.97
2017-06-09T07:02:52.970Z,981.02
2017-06-09T07:04:03.233Z,980.99
2017-06-09T07:05:13.501Z,981.02
2017-06-09T07:06:23.140Z,981.04
2017-06-09T07:07:33.098Z,981.01
2017-06-09T07:08:43.052Z,981.08
2017-06-09T07:09:52.684Z,981.11
2017-06-09T07:11:02.636Z,981.12
2017-06-09T07:12:12.596Z,981.15
2017-06-09T07:13:22.859Z,981.12
2017-06-09T07:14:33.119Z,981.12
2017-06-09T07:15:43.072Z,981.09
2017-06-09T07:16:53.328Z,981.12
2017-06-09T07:18:03.584Z,981.19
2017-06-09T07:19:13.844Z,981.21
2017-06-09T07:20:24.105Z,981.22
2017-06-09T07:21:34.056Z,981.27
2017-06-09T07:22:44.316Z,981.23
2017-06-09T07:23:54.577Z,981.27
2017-06-09T07:25:04.526Z,981.33
2017-06-09T07:26:13.847Z,981.34
2017-06-09T07:27:23.795Z,981.35
2017-06-09T07:28:34.057Z,981.29
2017-06-09T07:29:44.015Z,981.28
2017-06-09T07:30:54.289Z,981.32
2017-06-09T07:32:04.558Z,981.35
2017-06-09T07:33:14.823Z,981.34
2017-06-09T07:34:24.770Z,981.35
2017-06-09T07:35:34.716Z,981.32
2017-06-09T07:36:44.989Z,981.37
2017-06-09T07:37:55.260Z,981.37
2017-06-09T07:39:05.218Z,981.35
2017-06-09T07:40:15.479Z,981.36
2017-06-09T07:41:25.747Z,981.39
2017-06-09T07:42:36.009Z,981.34
2017-06-09T07:43:46.272Z,981.35
2017-06-09T07:44:56.530Z,981.32
2017-06-09T07:46:06.792Z,981.31
2017-06-09T07:47:17.052Z,981.3
2017-06-09T07:48:27.006Z,981.33
2017-06-09T07:49:37.269Z,981.28
2017-06-09T07:50:47.252Z,981.29
2017-06-09T07:51:57.519Z,981.24
2017-06-09T07:53:07.468Z,981.26
2017-06-09T07:54:17.106Z,981.26
2017-06-09T07:55:27.055Z,981.28
2017-06-09T07:56:37.324Z,981.3
2017-06-09T07:57:47.596Z,981.33
2017-06-09T07:58:57.864Z,981.34
2017-06-09T08:00:08.131Z,981.34
2017-06-09T08:01:18.437Z,981.35
2017-06-09T08:02:28.072Z,981.37
2017-06-09T08:03:38.390Z,981.33
2017-06-09T08:04:48.020Z,981.37
2017-06-09T08:05:57.975Z,981.36
2017-06-09T08:07:08.239Z,981.39
2017-06-09T08:08:18.191Z,981.36
2017-06-09T08:09:28.458Z,981.4
2017-06-09T08:10:38.415Z,981.37
2017-06-09T08:11:48.690Z,981.42
2017-06-09T08:12:58.953Z,981.41
2017-06-09T08:14:09.214Z,981.41
2017-06-09T08:15:19.475Z,981.43
2017-06-09T08:16:29.735Z,981.48
2017-06-09T08:17:40.007Z,981.47
2017-06-09T08:18:50.275Z,981.48
2017-06-09T08:20:00.534Z,981.49
2017-06-09T08:21:10.846Z,981.51
2017-06-09T08:22:21.117Z,981.51
2017-06-09T08:23:31.383Z,981.56
2017-06-09T08:24:41.333Z,981.49
2017-06-09T08:25:51.600Z,981.48
2017-06-09T08:27:01.862Z,981.51
2017-06-09T08:28:12.132Z,981.53
2017-06-09T08:29:21.764Z,981.48
2017-06-09T08:30:31.709Z,981.51
2017-06-09T08:31:41.994Z,981.57
2017-06-09T08:32:52.267Z,981.5
2017-06-09T08:34:02.533Z,981.43
2017-06-09T08:35:12.801Z,981.46
2017-06-09T08:36:22.748Z,981.42
2017-06-09T08:37:33.016Z,981.43
2017-06-09T08:38:43.282Z,981.41
2017-06-09T08:39:53.245Z,981.44
2017-06-09T08:41:03.512Z,981.44
2017-06-09T08:42:13.773Z,981.45
2017-06-09T08:43:24.041Z,981.43
2017-06-09T08:44:34.306Z,981.4
2017-06-09T08:45:44.299Z,981.47
2017-06-09T08:46:54.258Z,981.53
2017-06-09T08:48:04.207Z,981.53
2017-06-09T08:49:14.477Z,981.58
2017-06-09T08:50:24.744Z,981.56
2017-06-09T08:51:35.007Z,981.59
2017-06-09T08:52:45.267Z,981.59
2017-06-09T08:53:55.217Z,981.59
2017-06-09T08:55:05.501Z,981.62
2017-06-09T08:56:15.760Z,981.62
2017-06-09T08:57:25.397Z,981.6
2017-06-09T08:58:35.349Z,981.6
2017-06-09T08:59:45.611Z,981.6
2017-06-09T09:00:55.882Z,981.56
2017-06-09T09:02:06.146Z,981.55
2017-06-09T09:03:16.412Z,981.56
2017-06-09T09:04:26.357Z,981.56
2017-06-09T09:05:36.310Z,981.56
2017-06-09T09:06:46.263Z,981.55
2017-06-09T09:07:56.212Z,981.58
2017-06-09T09:09:06.165Z,981.56
2017-06-09T09:10:16.114Z,981.49
2017-06-09T09:11:26.379Z,981.54
2017-06-09T09:12:36.642Z,981.52
2017-06-09T09:13:46.583Z,981.57
2017-06-09T09:14:56.849Z,981.55
2017-06-09T09:16:07.116Z,981.53
2017-06-09T09:17:17.083Z,981.55
2017-06-09T09:18:27.359Z,981.57
2017-06-09T09:19:37.305Z,981.57
2017-06-09T09:20:47.261Z,981.6
2017-06-09T09:21:57.519Z,981.63
2017-06-09T09:23:07.490Z,981.63
2017-06-09T09:24:17.758Z,981.66
2017-06-09T09:25:27.716Z,981.68
2017-06-09T09:26:37.979Z,981.66
2017-06-09T09:27:48.240Z,981.67
2017-06-09T09:28:58.495Z,981.64
2017-06-09T09:30:08.758Z,981.65
2017-06-09T09:31:18.712Z,981.65
2017-06-09T09:32:28.982Z,981.63
2017-06-09T09:33:38.933Z,981.64
2017-06-09T09:34:49.198Z,981.65
2017-06-09T09:35:59.460Z,981.65
2017-06-09T09:37:09.730Z,981.64
2017-06-09T09:38:19.676Z,981.61
2017-06-09T09:39:29.942Z,981.65
2017-06-09T09:40:39.894Z,981.66
2017-06-09T09:41:49.888Z,981.7
2017-06-09T09:42:59.835Z,981.72
2017-06-09T09:44:10.097Z,981.74
2017-06-09T09:45:20.354Z,981.72
2017-06-09T09:46:30.304Z,981.77
2017-06-09T09:47:39.937Z,981.73
2017-06-09T09:48:50.270Z,981.72
2017-06-09T09:50:00.219Z,981.7
2017-06-09T09:51:10.170Z,981.74
2017-06-09T09:52:20.436Z,981.74
2017-06-09T09:53:30.386Z,981.72
2017-06-09T09:54:40.653Z,981.71
2017-06-09T09:55:50.920Z,981.73
2017-06-09T09:57:01.187Z,981.78
2017-06-09T09:58:11.136Z,981.76
2017-06-09T09:59:20.768Z,981.78
2017-06-09T10:00:30.434Z,981.77
2017-06-09T10:01:40.386Z,981.76
2017-06-09T10:02:50.332Z,981.78
2017-06-09T10:04:00.591Z,981.79
2017-06-09T10:05:10.919Z,981.8
2017-06-09T10:06:20.864Z,981.75
2017-06-09T10:07:31.122Z,981.73
2017-06-09T10:08:41.102Z,981.75
2017-06-09T10:09:51.058Z,981.73
2017-06-09T10:11:01.013Z,981.75
2017-06-09T10:12:11.271Z,981.74
2017-06-09T10:13:21.216Z,981.76
2017-06-09T10:14:31.174Z,981.72
2017-06-09T10:15:41.437Z,981.75
2017-06-09T10:16:51.703Z,981.72
2017-06-09T10:18:01.337Z,981.78
2017-06-09T10:19:11.284Z,981.76
2017-06-09T10:20:20.915Z,981.75
2017-06-09T10:21:31.176Z,981.75
2017-06-09T10:22:41.439Z,981.79
2017-06-09T10:23:51.720Z,981.8
2017-06-09T10:25:01.985Z,981.79
2017-06-09T10:26:12.250Z,981.76
2017-06-09T10:27:22.517Z,981.82
2017-06-09T10:28:32.778Z,981.78
2017-06-09T10:29:43.045Z,981.8
2017-06-09T10:30:53.311Z,981.85
2017-06-09T10:32:03.571Z,981.83
2017-06-09T10:33:13.839Z,981.84
2017-06-09T10:34:23.475Z,981.89
2017-06-09T10:35:33.738Z,981.88
2017-06-09T10:36:43.998Z,981.87
2017-06-09T10:37:54.261Z,981.86
2017-06-09T10:39:04.524Z,981.87
2017-06-09T10:40:14.786Z,981.85
2017-06-09T10:41:24.741Z,981.89
2017-06-09T10:42:34.696Z,981.89
2017-06-09T10:43:44.958Z,981.92
2017-06-09T10:44:55.221Z,981.92
2017-06-09T10:46:05.479Z,981.95
2017-06-09T10:47:15.428Z,981.97
2017-06-09T10:48:25.736Z,981.95
2017-06-09T10:49:35.994Z,982.01
2017-06-09T10:50:46.256Z,982.04
2017-06-09T10:51:56.523Z,982.04
2017-06-09T10:53:06.792Z,982.08
2017-06-09T10:54:17.046Z,982.04
2017-06-09T10:55:26.681Z,982.03
2017-06-09T10:56:36.949Z,982.03
2017-06-09T10:57:47.214Z,982.03
2017-06-09T10:58:57.475Z,982.03
2017-06-09T11:00:07.742Z,982.01
2017-06-09T11:01:18.000Z,981.99
2017-06-09T11:02:27.331Z,981.97
2017-06-09T11:03:37.278Z,981.96
2017-06-09T11:04:47.534Z,981.95
2017-06-09T11:05:57.712Z,981.93
2017-06-09T11:07:07.667Z,981.91
2017-06-09T11:08:17.926Z,981.95
2017-06-09T11:09:28.184Z,981.92
2017-06-09T11:10:38.135Z,981.85
2017-06-09T11:11:48.395Z,981.86
2017-06-09T11:12:58.344Z,981.88
2017-06-09T11:14:08.640Z,981.89
2017-06-09T11:15:18.908Z,981.88
2017-06-09T11:16:28.863Z,981.89
2017-06-09T11:17:39.128Z,981.94
2017-06-09T11:18:48.767Z,981.99
2017-06-09T11:19:59.031Z,982
2017-06-09T11:21:08.981Z,982.03
2017-06-09T11:22:18.626Z,982.01
2017-06-09T11:23:28.578Z,982.01
2017-06-09T11:24:38.526Z,982.02
2017-06-09T11:25:48.792Z,982
2017-06-09T11:26:59.052Z,981.96
2017-06-09T11:28:09.005Z,981.94
2017-06-09T11:29:18.966Z,981.84
2017-06-09T11:30:28.607Z,981.86
2017-06-09T11:31:38.870Z,981.91
2017-06-09T11:32:48.821Z,981.92
2017-06-09T11:33:59.079Z,981.95
2017-06-09T11:35:09.023Z,981.92
2017-06-09T11:36:19.281Z,981.93
2017-06-09T11:37:29.545Z,981.86
2017-06-09T11:38:39.815Z,981.84
2017-06-09T11:39:50.075Z,981.86
2017-06-09T11:41:00.336Z,981.84
2017-06-09T11:42:10.599Z,981.89
2017-06-09T11:43:20.863Z,981.82
2017-06-09T11:44:31.129Z,981.87
2017-06-09T11:45:41.407Z,981.82
2017-06-09T11:46:51.049Z,981.9
2017-06-09T11:48:01.306Z,981.89
2017-06-09T11:49:11.574Z,981.86
2017-06-09T11:50:21.520Z,981.88
2017-06-09T11:51:31.475Z,981.87
2017-06-09T11:52:41.417Z,981.89
2017-06-09T11:53:51.367Z,981.94
2017-06-09T11:55:01.621Z,982.01
2017-06-09T11:56:11.878Z,982.02
2017-06-09T11:57:22.134Z,981.98
2017-06-09T11:58:32.399Z,982
2017-06-09T11:59:42.655Z,981.98
2017-06-09T12:00:52.919Z,981.98
2017-06-09T12:02:02.870Z,981.98
2017-06-09T12:03:12.812Z,981.99
2017-06-09T12:04:22.759Z,982.03
2017-06-09T12:05:33.018Z,982
2017-06-09T12:06:43.282Z,982.05
2017-06-09T12:07:53.541Z,982.05
2017-06-09T12:09:03.808Z,982.09
2017-06-09T12:10:13.756Z,982.07
2017-06-09T12:11:24.018Z,982.05
2017-06-09T12:12:33.968Z,982.07
2017-06-09T12:13:43.915Z,982.13
2017-06-09T12:14:53.864Z,982.15
2017-06-09T12:16:03.810Z,982.19
2017-06-09T12:17:13.758Z,982.15
2017-06-09T12:18:23.413Z,982.15
2017-06-09T12:19:33.691Z,982.18
2017-06-09T12:20:43.950Z,982.14
2017-06-09T12:21:53.582Z,982.21
2017-06-09T12:23:03.527Z,982.24
2017-06-09T12:24:13.783Z,982.2
2017-06-09T12:25:23.415Z,982.15
2017-06-09T12:26:33.682Z,982.19
2017-06-09T12:27:43.941Z,982.15
2017-06-09T12:28:53.573Z,982.2
2017-06-09T12:30:03.830Z,982.15
2017-06-09T12:31:13.776Z,982.14
2017-06-09T12:32:24.034Z,982.17
2017-06-09T12:33:34.288Z,982.13
2017-06-09T12:34:44.544Z,982.14
2017-06-09T12:35:54.815Z,982.19
2017-06-09T12:37:05.078Z,982.18
2017-06-09T12:38:15.337Z,982.1
2017-06-09T12:39:25.601Z,982.11
2017-06-09T12:40:35.864Z,982.1
2017-06-09T12:41:45.808Z,982.12
2017-06-09T12:42:55.443Z,982.11
2017-06-09T12:44:05.704Z,982.08
2017-06-09T12:45:15.653Z,982.06
2017-06-09T12:46:25.911Z,982.09
2017-06-09T12:47:35.861Z,982.08
2017-06-09T12:48:46.123Z,982.07
2017-06-09T12:49:55.756Z,982.08
2017-06-09T12:51:05.390Z,982.07
2017-06-09T12:52:15.331Z,982.13
2017-06-09T12:53:25.278Z,982.08
2017-06-09T12:54:35.542Z,982.11
2017-06-09T12:55:45.797Z,982.11
2017-06-09T12:56:56.060Z,982.09
2017-06-09T12:58:06.324Z,982.09
2017-06-09T12:59:15.969Z,982.04
2017-06-09T13:00:26.230Z,982.06
2017-06-09T13:01:36.498Z,982.03
2017-06-09T13:02:46.448Z,982.07
2017-06-09T13:03:56.081Z,982.04
2017-06-09T13:05:06.348Z,982.07
2017-06-09T13:06:16.296Z,982
2017-06-09T13:07:26.247Z,982.01
2017-06-09T13:08:36.521Z,982.04
2017-06-09T13:09:46.782Z,982
2017-06-09T13:10:56.416Z,982.02
2017-06-09T13:12:06.690Z,982.05
2017-06-09T13:13:16.949Z,982.08
2017-06-09T13:14:26.903Z,982.1
2017-06-09T13:15:37.169Z,982.06
2017-06-09T13:16:47.432Z,982.06
2017-06-09T13:17:57.698Z,982.11
2017-06-09T13:19:07.648Z,982.1
2017-06-09T13:20:17.909Z,982.15
2017-06-09T13:21:28.169Z,982.12
2017-06-09T13:22:38.118Z,982.11
2017-06-09T13:23:48.395Z,982.13
2017-06-09T13:24:58.663Z,982.11
2017-06-09T13:26:08.300Z,982.17
2017-06-09T13:27:18.562Z,982.13
2017-06-09T13:28:28.822Z,982.11
2017-06-09T13:29:38.771Z,982.14
2017-06-09T13:30:49.046Z,982.11
2017-06-09T13:31:59.313Z,982.12
2017-06-09T13:33:09.579Z,982.1
2017-06-09T13:34:19.521Z,982.13
2017-06-09T13:35:29.782Z,982.11
2017-06-09T13:36:39.734Z,982.13
2017-06-09T13:37:49.995Z,982.16
2017-06-09T13:39:00.256Z,982.13
2017-06-09T13:40:10.516Z,982.11
2017-06-09T13:41:20.779Z,982.15
2017-06-09T13:42:31.041Z,982.16
2017-06-09T13:43:40.676Z,982.1
2017-06-09T13:44:50.634Z,982.15
2017-06-09T13:46:00.603Z,982.12
2017-06-09T13:47:10.240Z,982.1
2017-06-09T13:48:20.187Z,982.07
2017-06-09T13:49:30.450Z,982.12
2017-06-09T13:50:40.712Z,982.1
2017-06-09T13:51:50.974Z,982.09
2017-06-09T13:53:00.918Z,982.12
2017-06-09T13:54:11.175Z,982.15
2017-06-09T13:55:21.440Z,982.17
2017-06-09T13:56:31.705Z,982.19
2017-06-09T13:57:41.974Z,982.24
2017-06-09T13:58:52.241Z,982.29
2017-06-09T14:00:02.198Z,982.33
2017-06-09T14:01:12.468Z,982.34
2017-06-09T14:02:22.738Z,982.37
2017-06-09T14:03:33.004Z,982.35
2017-06-09T14:04:43.283Z,982.36
2017-06-09T14:05:53.544Z,982.35
2017-06-09T14:07:03.803Z,982.3
2017-06-09T14:08:14.064Z,982.35
2017-06-09T14:09:24.325Z,982.37
2017-06-09T14:10:34.262Z,982.36
2017-06-09T14:11:44.523Z,982.35
2017-06-09T14:12:54.817Z,982.37
2017-06-09T14:14:05.077Z,982.38
2017-06-09T14:15:15.024Z,982.4
2017-06-09T14:16:24.970Z,982.39
2017-06-09T14:17:35.234Z,982.39
2017-06-09T14:18:45.181Z,982.41
2017-06-09T14:19:55.123Z,982.43
2017-06-09T14:21:05.070Z,982.39
2017-06-09T14:22:14.074Z,982.39
2017-06-09T14:23:24.336Z,982.35
2017-06-09T14:24:34.293Z,982.35
2017-06-09T14:25:44.565Z,982.37
2017-06-09T14:26:54.821Z,982.37
2017-06-09T14:28:04.769Z,982.33
2017-06-09T14:29:14.711Z,982.37
2017-06-09T14:30:24.659Z,982.32
2017-06-09T14:31:34.607Z,982.26
2017-06-09T14:32:44.245Z,982.29
2017-06-09T14:33:54.506Z,982.25
2017-06-09T14:35:04.448Z,982.28
2017-06-09T14:36:14.397Z,982.23
2017-06-09T14:37:24.662Z,982.23
2017-06-09T14:38:34.931Z,982.22
2017-06-09T14:39:45.189Z,982.19